createdAt,value
2019-04-05T00:00:01.205Z,5.80
2019-04-05T00:05:01.503Z,5.83
2019-04-05T00:10:01.060Z,5.93
2019-04-05T00:15:14.251Z,6.17
2019-04-05T00:20:01.055Z,6.49
2019-04-05T00:25:01.894Z,6.67
2019-04-05T00:30:01.068Z,6.67
2019-04-05T00:35:01.081Z,6.66
2019-04-05T00:40:01.446Z,6.66
2019-04-05T00:45:01.089Z,6.68
2019-04-05T00:50:01.100Z,6.68
2019-04-05T00:55:01.100Z,6.74
2019-04-05T01:00:01.102Z,6.77
2019-04-05T01:05:01.104Z,6.81
2019-04-05T01:10:01.395Z,6.85
2019-04-05T01:15:01.425Z,6.90
2019-04-05T01:20:01.064Z,6.96
2019-04-05T01:25:01.357Z,7.00
2019-04-05T01:30:01.087Z,7.01
2019-04-05T01:35:01.068Z,7.02
2019-04-05T01:40:01.379Z,7.00
2019-04-05T01:45:01.489Z,7.02
2019-04-05T01:50:01.063Z,7.03
2019-04-05T01:55:01.073Z,7.00
2019-04-05T02:00:01.492Z,6.96
2019-04-05T02:05:01.121Z,6.95
2019-04-05T02:10:01.057Z,7.01
2019-04-05T02:15:01.126Z,7.02
2019-04-05T02:20:01.043Z,7.08
2019-04-05T02:25:01.090Z,7.07
2019-04-05T02:30:01.096Z,7.09
2019-04-05T02:35:01.111Z,7.18
2019-04-05T03:20:01.121Z,7.51
2019-04-05T03:25:01.074Z,7.56
2019-04-05T03:30:01.086Z,7.63
2019-04-05T03:35:01.063Z,7.71
2019-04-05T03:40:01.225Z,7.78
2019-04-05T03:45:01.247Z,7.75
2019-04-05T03:50:01.145Z,7.77
2019-04-05T03:55:01.270Z,7.76
2019-04-05T04:00:01.042Z,7.75
2019-04-05T04:05:01.089Z,7.77
2019-04-05T04:10:01.093Z,7.77
2019-04-05T04:15:01.114Z,7.77
2019-04-05T04:20:01.049Z,7.79
2019-04-05T04:25:01.177Z,7.81
2019-04-05T04:30:01.106Z,8.00
2019-04-05T04:35:01.278Z,8.15
2019-04-05T04:40:01.188Z,8.40
2019-04-05T04:45:11.967Z,8.79
2019-04-05T04:50:01.055Z,9.09
2019-04-05T04:55:01.071Z,9.34
2019-04-05T05:00:01.305Z,9.39
2019-04-05T05:05:01.108Z,9.62
2019-04-05T05:10:03.235Z,9.77
2019-04-05T05:15:01.118Z,9.73
2019-04-05T05:20:01.098Z,9.82
2019-04-05T05:25:01.152Z,9.94
2019-04-05T05:30:01.067Z,10.04
2019-04-05T05:35:01.915Z,10.05
2019-04-05T05:40:01.317Z,10.17
2019-04-05T05:45:01.040Z,10.18
2019-04-05T05:50:01.308Z,10.19
2019-04-05T05:55:01.049Z,10.23
2019-04-05T06:00:01.233Z,10.25
2019-04-05T06:05:01.058Z,10.25
2019-04-05T06:10:01.061Z,10.25
2019-04-05T06:15:01.067Z,10.22
2019-04-05T06:20:01.269Z,10.23
2019-04-05T06:25:01.071Z,10.25
2019-04-05T06:30:01.070Z,10.28
2019-04-05T06:35:01.327Z,10.25
2019-04-05T06:40:01.056Z,10.26
2019-04-05T06:45:01.340Z,10.22
2019-04-05T06:50:01.027Z,10.24
2019-04-05T06:55:01.091Z,10.20
2019-04-05T07:00:01.066Z,10.30
2019-04-05T07:05:01.401Z,10.21
2019-04-05T07:10:01.068Z,10.15
2019-04-05T07:15:01.057Z,10.13
2019-04-05T07:20:01.109Z,10.09
2019-04-05T07:25:01.412Z,10.03
2019-04-05T07:30:01.076Z,9.96
2019-04-05T07:35:01.398Z,9.94
2019-04-05T07:40:01.066Z,9.95
2019-04-05T07:45:01.087Z,10.01
2019-04-05T07:50:01.068Z,10.04
2019-04-05T07:55:01.121Z,10.11
2019-04-05T08:00:01.383Z,10.30
2019-04-05T08:05:01.013Z,10.46
2019-04-05T08:10:03.021Z,10.60
2019-04-05T08:15:01.121Z,10.76
2019-04-05T08:20:01.062Z,10.91
2019-04-05T08:25:01.046Z,10.98
2019-04-05T08:30:01.460Z,11.02
2019-04-05T08:35:01.048Z,11.01
2019-04-05T08:40:01.050Z,10.90
2019-04-05T08:45:01.074Z,10.71
2019-04-05T08:50:01.097Z,10.65
2019-04-05T08:55:01.093Z,10.67
2019-04-05T09:00:01.104Z,10.79
2019-04-05T09:05:01.074Z,10.94
2019-04-05T09:10:01.077Z,11.13
2019-04-05T09:15:01.408Z,11.42
2019-04-05T09:20:01.539Z,11.68
2019-04-05T09:25:01.082Z,11.78
2019-04-05T09:30:01.511Z,11.70
2019-04-05T09:35:01.491Z,11.63
2019-04-05T09:40:01.060Z,11.62
2019-04-05T09:45:01.369Z,11.62
2019-04-05T09:50:01.099Z,11.61
2019-04-05T09:55:01.448Z,11.55
2019-04-05T10:00:01.501Z,11.52
2019-04-05T10:05:01.064Z,11.49
2019-04-05T10:10:01.559Z,11.50
2019-04-05T10:15:01.129Z,11.47
2019-04-05T10:20:01.477Z,11.39
2019-04-05T10:25:01.090Z,11.38
2019-04-05T10:30:01.065Z,11.45
2019-04-05T10:35:01.415Z,11.50
2019-04-05T10:40:01.105Z,11.29
2019-04-05T10:45:01.149Z,11.19
2019-04-05T10:50:03.313Z,11.03
2019-04-05T10:55:01.066Z,10.75
2019-04-05T11:00:01.432Z,10.62
2019-04-05T11:05:01.093Z,10.50
2019-04-05T11:10:01.565Z,10.44
2019-04-05T11:15:01.091Z,10.25
2019-04-05T11:20:01.081Z,10.18
2019-04-05T11:25:01.383Z,10.11
2019-04-05T11:30:01.038Z,9.90
2019-04-05T11:35:01.094Z,9.83
2019-04-05T11:40:01.086Z,9.76
2019-04-05T11:45:01.079Z,9.75
2019-04-05T11:50:01.566Z,9.78
2019-04-05T11:55:04.529Z,9.95
2019-04-05T12:00:01.137Z,10.04
2019-04-05T12:05:01.403Z,10.07
2019-04-05T12:10:01.073Z,9.90
2019-04-05T12:15:01.080Z,9.76
2019-04-05T12:20:02.716Z,9.69
2019-04-05T12:25:02.769Z,9.61
2019-04-05T12:30:01.067Z,9.53
2019-04-05T12:35:01.054Z,9.46
2019-04-05T12:40:01.147Z,9.41
2019-04-05T12:45:01.090Z,9.37
2019-04-05T12:50:01.399Z,9.35
2019-04-05T12:55:01.281Z,9.29
2019-04-05T13:00:01.506Z,9.22
2019-04-05T13:05:01.557Z,9.17
2019-04-05T13:10:01.103Z,9.22
2019-04-05T13:15:12.393Z,9.22
2019-04-05T13:20:01.359Z,9.22
2019-04-05T13:25:01.096Z,9.21
2019-04-05T13:30:01.085Z,9.18
2019-04-05T13:35:01.059Z,9.19
2019-04-05T13:40:01.064Z,9.23
2019-04-05T13:45:01.093Z,9.23
2019-04-05T13:50:01.436Z,9.23
2019-04-05T13:55:01.356Z,9.10
2019-04-05T14:00:01.185Z,9.10
2019-04-05T14:05:01.117Z,9.11
2019-04-05T14:10:01.516Z,9.10
2019-04-05T14:15:01.098Z,9.03
2019-04-05T14:20:01.075Z,9.02
2019-04-05T14:25:01.109Z,8.99
2019-04-05T14:30:03.107Z,9.00
2019-04-05T14:35:01.140Z,9.06
2019-04-05T14:40:01.146Z,9.06
2019-04-05T14:45:01.527Z,9.10
2019-04-05T14:50:01.589Z,9.17
2019-04-05T14:55:01.139Z,9.14
2019-04-05T15:00:01.070Z,9.09
2019-04-05T15:05:01.147Z,9.08
2019-04-05T15:10:03.728Z,9.02
2019-04-05T15:15:01.079Z,8.99
2019-04-05T15:20:04.770Z,9.02
2019-04-05T15:25:01.157Z,9.03
2019-04-05T15:30:01.415Z,9.00
2019-04-05T15:35:01.120Z,9.00
2019-04-05T15:40:01.149Z,8.99
2019-04-05T15:45:01.094Z,9.01
2019-04-05T15:50:01.053Z,9.04
2019-04-05T15:55:01.713Z,9.07
2019-04-05T16:00:03.859Z,9.05
2019-04-05T16:05:01.094Z,9.08
2019-04-05T16:10:01.463Z,9.06
2019-04-05T16:15:01.088Z,9.07
2019-04-05T16:20:01.637Z,9.10
2019-04-05T16:25:03.713Z,9.10
2019-04-05T16:30:01.541Z,9.09
2019-04-05T16:35:01.441Z,9.07
2019-04-05T16:40:01.106Z,9.06
2019-04-05T16:45:01.486Z,9.03
2019-04-05T16:50:01.455Z,9.01
2019-04-05T16:55:03.596Z,8.97
2019-04-05T17:00:01.529Z,8.96
2019-04-05T17:05:01.210Z,8.95
2019-04-05T17:10:01.237Z,8.92
2019-04-05T17:15:01.046Z,8.93
2019-04-05T17:20:01.081Z,8.93
2019-04-05T17:25:01.081Z,8.94
2019-04-05T17:30:01.089Z,8.88
2019-04-05T17:35:01.046Z,8.84
2019-04-05T17:40:01.079Z,8.86
2019-04-05T17:45:01.113Z,8.85
2019-04-05T17:50:01.062Z,8.79
2019-04-05T17:55:01.058Z,8.78
2019-04-05T18:00:01.078Z,8.76
2019-04-05T18:05:01.117Z,8.75
2019-04-05T18:10:01.059Z,8.72
2019-04-05T18:15:01.156Z,8.71
2019-04-05T18:20:01.415Z,8.70
2019-04-05T18:25:01.148Z,8.67
2019-04-05T18:30:01.078Z,8.66
2019-04-05T18:35:01.087Z,8.64
2019-04-05T18:40:01.121Z,8.64
2019-04-05T18:45:01.098Z,8.57
2019-04-05T18:50:03.097Z,8.51
2019-04-05T18:55:01.336Z,8.52
2019-04-05T19:00:01.069Z,8.48
2019-04-05T19:05:01.540Z,8.44
2019-04-05T19:10:01.213Z,8.37
2019-04-05T19:15:01.538Z,8.36
2019-04-05T19:20:01.286Z,8.34
2019-04-05T19:25:01.192Z,8.32
2019-04-05T19:50:01.405Z,8.09
2019-04-05T19:55:01.457Z,8.07
2019-04-05T20:00:01.201Z,8.03
2019-04-05T20:05:01.175Z,7.97
2019-04-05T20:10:01.321Z,7.95
2019-04-05T20:15:04.435Z,7.93
2019-04-05T20:20:01.168Z,7.87
2019-04-05T20:25:01.378Z,7.85
2019-04-05T20:30:01.278Z,7.82
2019-04-05T20:35:01.216Z,7.76
2019-04-05T20:40:01.358Z,7.76
2019-04-05T20:45:01.232Z,7.75
2019-04-05T20:50:01.344Z,7.70
2019-04-05T20:55:01.326Z,7.68
2019-04-05T21:00:01.182Z,7.69
2019-04-05T21:05:01.308Z,7.67
2019-04-05T21:10:01.173Z,7.64
2019-04-05T21:15:01.443Z,7.63
2019-04-05T21:20:01.296Z,7.59
2019-04-05T21:25:02.021Z,7.56
2019-04-05T21:30:01.411Z,7.56
2019-04-05T21:35:01.142Z,7.54
2019-04-05T21:40:01.426Z,7.56
2019-04-05T21:45:01.078Z,7.55
2019-04-05T21:50:01.225Z,7.52
2019-04-05T21:55:01.354Z,7.52
2019-04-05T22:00:01.650Z,7.49
2019-04-05T22:05:01.393Z,7.42
2019-04-05T22:10:01.478Z,7.37
2019-04-05T22:15:01.074Z,7.38
2019-04-05T22:20:01.087Z,7.38
2019-04-05T22:25:01.416Z,7.34
2019-04-05T22:30:01.023Z,7.37
2019-04-05T22:35:01.420Z,7.37
2019-04-05T22:40:01.075Z,7.37
2019-04-05T22:45:01.048Z,7.35
2019-04-05T22:50:01.082Z,7.30
2019-04-05T22:55:10.488Z,7.29
2019-04-05T23:00:01.362Z,7.29
2019-04-05T23:05:01.142Z,7.30
2019-04-05T23:10:01.555Z,7.25
2019-04-05T23:15:01.224Z,7.20
2019-04-05T23:20:01.083Z,7.15
2019-04-05T23:25:01.476Z,7.09
2019-04-05T23:30:01.025Z,7.04
2019-04-05T23:35:01.070Z,6.97
2019-04-05T23:40:01.082Z,6.90
2019-04-05T23:45:01.058Z,6.81
2019-04-05T23:50:01.082Z,6.73
2019-04-05T23:55:01.060Z,6.68
